Amagi Galaxy — V7VE9 — position and weather

sailwx.info

Track history (hours):
 
Tides and Currents Weather Stations Pressure Air Temp Water Temp Dewpoint Dewpoint Depression Visibility Wind Speed Wind Dir Waves Ship Positions

Amagi Galaxy

Last reported at 2017-Jun-26 01:45 UTC. Time now 2017-Jun-27 02:00 UTC.
Position N 01°14' E 103°58'.

Length 152 m; draft 7.9 m.

Type: Ship (hazmat cat B). MMSI: 538004105.

Date/timePositionNaut miles runAvg speedWind from/ knotsBaromVisibWave heightAir tempDewpointWater temp
2017-Jun-26 01:45N 01°14' E 103°58'312.3
2017-Jun-26 01:30N 01°13' E 103°56'612.8
2017-Jun-26 01:00N 01°10' E 103°50'713.1
2017-Jun-26 00:30N 01°06' E 103°45'612.8
2017-Jun-26 00:00N 01°02' E 103°39'510.7
2017-Jun-25 23:30N 01°05' E 103°35'610.8
2017-Jun-25 23:00N 01°08' E 103°30'511.0
2017-Jun-25 22:30N 01°11' E 103°25'712.0
2017-Jun-25 21:56N 01°15' E 103°20'  
2017-Jun-17 08:14N 01°56' E 102°17'314.4
2017-Jun-17 08:00N 01°55' E 102°20'913.9
2017-Jun-17 07:22N 01°51' E 102°28'613.5
2017-Jun-17 06:57N 01°49' E 102°34'613.5
2017-Jun-17 06:29N 01°46' E 102°39'913.1
2017-Jun-17 05:50N 01°43' E 102°47'39 8.7
2017-Jun-17 01:20N 01°20' E 103°19'3 9.4
2017-Jun-17 01:00N 01°18' E 103°21'611.5
2017-Jun-17 00:30N 01°14' E 103°26'713.7
2017-Jun-17 00:00N 01°13' E 103°32'611.8
2017-Jun-16 23:31N 01°11' E 103°38'510.9
2017-Jun-16 23:01N 01°09' E 103°43'4 8.2
2017-Jun-16 22:31N 01°10' E 103°47'5 9.6
2017-Jun-16 22:00N 01°12' E 103°51'510.5
2017-Jun-16 21:30N 01°14' E 103°56'611.7
2017-Jun-16 21:00N 01°16' E 104°02'610.8
2017-Jun-16 20:28N 01°18' E 104°07'612.2
2017-Jun-16 19:59N 01°22' E 104°03'5 9.6
2017-Jun-16 19:30N 01°24' E 103°58'4 9.0
2017-Jun-16 19:00N 01°26' E 103°54'0 0.7
2017-Jun-16 18:23N 01°26' E 103°54'0 0.0
2017-Jun-16 17:59N 01°26' E 103°54'0 0.0
2017-Jun-16 17:23N 01°26' E 103°54'0 0.0
2017-Jun-16 16:59N 01°26' E 103°54'0 0.0
2017-Jun-16 16:29N 01°26' E 103°54'0 0.0
2017-Jun-16 15:59N 01°26' E 103°54'0 0.0
2017-Jun-16 15:29N 01°26' E 103°54'0 0.0
2017-Jun-16 14:53N 01°26' E 103°54'0 0.0
2017-Jun-16 13:11N 01°26' E 103°54'0 0.0
2017-Jun-16 12:53N 01°26' E 103°54'0 0.0
2017-Jun-16 12:23N 01°26' E 103°54'0 0.0
2017-Jun-16 11:53N 01°26' E 103°54'0 0.0
2017-Jun-16 11:23N 01°26' E 103°54'0 0.0
2017-Jun-16 10:59N 01°26' E 103°54'0 0.0
2017-Jun-16 10:23N 01°26' E 103°54'0 0.0
2017-Jun-16 09:59N 01°26' E 103°54'0 0.0
2017-Jun-16 09:29N 01°26' E 103°54'0 0.0
2017-Jun-16 08:59N 01°26' E 103°54'0 0.0
2017-Jun-16 08:23N 01°26' E 103°54'0 0.0
2017-Jun-16 07:59N 01°26' E 103°54'0 0.0
2017-Jun-16 07:29N 01°26' E 103°54'0 0.0
2017-Jun-16 06:35N 01°26' E 103°54'0 0.0
2017-Jun-16 06:29N 01°26' E 103°54'0 0.0
2017-Jun-16 05:59N 01°26' E 103°54'0 0.0
2017-Jun-16 05:17N 01°26' E 103°54'0 0.0
2017-Jun-16 04:53N 01°26' E 103°54'0 0.0
2017-Jun-16 04:11N 01°26' E 103°54'0 0.0
2017-Jun-16 03:59N 01°26' E 103°54'0 0.0
2017-Jun-16 03:11N 01°26' E 103°54'0 0.0
2017-Jun-16 02:59N 01°26' E 103°54'0 0.0
2017-Jun-16 02:29N 01°26' E 103°54'0 0.0
2017-Jun-16 02:00N 01°26' E 103°54'  
Track history (hours):
 
Tides and Currents Weather Stations Pressure Air Temp Water Temp Dewpoint Dewpoint Depression Visibility Wind Speed Wind Dir Waves Ship Positions

Amagi Galaxy

Last reported at 2017-Jun-26 01:45 UTC. Time now 2017-Jun-27 02:00 UTC.
Position N 01°14' E 103°58'.

Length 152 m; draft 7.9 m.

Type: Ship (hazmat cat B). MMSI: 538004105.

Date/timePositionNaut miles runAvg speedWind from/ knotsBaromVisibWave heightAir tempDewpointWater temp
2017-Jun-26 01:45N 01°14' E 103°58'312.3
2017-Jun-26 01:30N 01°13' E 103°56'612.8
2017-Jun-26 01:00N 01°10' E 103°50'713.1
2017-Jun-26 00:30N 01°06' E 103°45'612.8
2017-Jun-26 00:00N 01°02' E 103°39'510.7
2017-Jun-25 23:30N 01°05' E 103°35'610.8
2017-Jun-25 23:00N 01°08' E 103°30'511.0
2017-Jun-25 22:30N 01°11' E 103°25'712.0
2017-Jun-25 21:56N 01°15' E 103°20'  
2017-Jun-17 08:14N 01°56' E 102°17'314.4
2017-Jun-17 08:00N 01°55' E 102°20'913.9
2017-Jun-17 07:22N 01°51' E 102°28'613.5
2017-Jun-17 06:57N 01°49' E 102°34'613.5
2017-Jun-17 06:29N 01°46' E 102°39'913.1
2017-Jun-17 05:50N 01°43' E 102°47'39 8.7
2017-Jun-17 01:20N 01°20' E 103°19'3 9.4
2017-Jun-17 01:00N 01°18' E 103°21'611.5
2017-Jun-17 00:30N 01°14' E 103°26'713.7
2017-Jun-17 00:00N 01°13' E 103°32'611.8
2017-Jun-16 23:31N 01°11' E 103°38'510.9
2017-Jun-16 23:01N 01°09' E 103°43'4 8.2
2017-Jun-16 22:31N 01°10' E 103°47'5 9.6
2017-Jun-16 22:00N 01°12' E 103°51'510.5
2017-Jun-16 21:30N 01°14' E 103°56'611.7
2017-Jun-16 21:00N 01°16' E 104°02'610.8
2017-Jun-16 20:28N 01°18' E 104°07'612.2
2017-Jun-16 19:59N 01°22' E 104°03'5 9.6
2017-Jun-16 19:30N 01°24' E 103°58'4 9.0
2017-Jun-16 19:00N 01°26' E 103°54'0 0.7
2017-Jun-16 18:23N 01°26' E 103°54'0 0.0
2017-Jun-16 17:59N 01°26' E 103°54'0 0.0
2017-Jun-16 17:23N 01°26' E 103°54'0 0.0
2017-Jun-16 16:59N 01°26' E 103°54'0 0.0
2017-Jun-16 16:29N 01°26' E 103°54'0 0.0
2017-Jun-16 15:59N 01°26' E 103°54'0 0.0
2017-Jun-16 15:29N 01°26' E 103°54'0 0.0
2017-Jun-16 14:53N 01°26' E 103°54'0 0.0
2017-Jun-16 13:11N 01°26' E 103°54'0 0.0
2017-Jun-16 12:53N 01°26' E 103°54'0 0.0
2017-Jun-16 12:23N 01°26' E 103°54'0 0.0
2017-Jun-16 11:53N 01°26' E 103°54'0 0.0
2017-Jun-16 11:23N 01°26' E 103°54'0 0.0
2017-Jun-16 10:59N 01°26' E 103°54'0 0.0
2017-Jun-16 10:23N 01°26' E 103°54'0 0.0
2017-Jun-16 09:59N 01°26' E 103°54'0 0.0
2017-Jun-16 09:29N 01°26' E 103°54'0 0.0
2017-Jun-16 08:59N 01°26' E 103°54'0 0.0
2017-Jun-16 08:23N 01°26' E 103°54'0 0.0
2017-Jun-16 07:59N 01°26' E 103°54'0 0.0
2017-Jun-16 07:29N 01°26' E 103°54'0 0.0
2017-Jun-16 06:35N 01°26' E 103°54'0 0.0
2017-Jun-16 06:29N 01°26' E 103°54'0 0.0
2017-Jun-16 05:59N 01°26' E 103°54'0 0.0
2017-Jun-16 05:17N 01°26' E 103°54'0 0.0
2017-Jun-16 04:53N 01°26' E 103°54'0 0.0
2017-Jun-16 04:11N 01°26' E 103°54'0 0.0
2017-Jun-16 03:59N 01°26' E 103°54'0 0.0
2017-Jun-16 03:11N 01°26' E 103°54'0 0.0
2017-Jun-16 02:59N 01°26' E 103°54'0 0.0
2017-Jun-16 02:29N 01°26' E 103°54'0 0.0
2017-Jun-16 02:00N 01°26' E 103°54'  

Dump ship's entire track history